createdAt,value
2019-05-28T00:01:50.552Z,14.90
2019-05-28T00:04:54.235Z,14.84
2019-05-28T00:07:57.940Z,14.71
2019-05-28T00:11:01.507Z,14.75
2019-05-28T00:14:05.630Z,14.63
2019-05-28T00:17:09.244Z,14.68
2019-05-28T00:20:13.765Z,14.67
2019-05-28T00:23:17.391Z,14.62
2019-05-28T00:26:20.969Z,14.58
2019-05-28T00:29:24.558Z,14.55
2019-05-28T00:32:28.156Z,14.54
2019-05-28T00:35:31.763Z,14.48
2019-05-28T00:38:35.331Z,14.44
2019-05-28T00:41:38.968Z,14.40
2019-05-28T00:44:42.543Z,14.39
2019-05-28T00:47:46.385Z,14.41
2019-05-28T00:50:50.022Z,14.38
2019-05-28T00:53:53.773Z,14.41
2019-05-28T00:56:58.335Z,14.35
2019-05-28T01:00:02.690Z,14.32
2019-05-28T01:03:06.321Z,14.32
2019-05-28T01:06:09.920Z,14.26
2019-05-28T01:09:15.342Z,14.22
2019-05-28T01:12:18.944Z,14.18
2019-05-28T01:15:22.822Z,14.15
2019-05-28T01:18:28.102Z,14.09
2019-05-28T01:21:33.949Z,14.12
2019-05-28T01:24:37.573Z,14.11
2019-05-28T01:27:41.162Z,14.18
2019-05-28T01:30:56.019Z,14.22
2019-05-28T01:33:50.138Z,14.10
2019-05-28T01:36:53.762Z,14.32
2019-05-28T01:39:57.320Z,14.25
2019-05-28T01:43:00.949Z,14.31
2019-05-28T01:46:05.170Z,14.35
2019-05-28T01:49:08.771Z,14.39
2019-05-28T01:52:12.411Z,14.50
2019-05-28T01:55:16.114Z,14.24
2019-05-28T01:58:19.802Z,14.20
2019-05-28T02:01:23.386Z,14.18
2019-05-28T02:04:27.712Z,14.24
2019-05-28T02:07:31.354Z,14.28
2019-05-28T02:10:35.029Z,14.24
2019-05-28T02:13:38.557Z,14.27
2019-05-28T02:16:42.320Z,14.22
2019-05-28T02:19:45.934Z,14.16
2019-05-28T02:22:49.555Z,14.15
2019-05-28T02:25:53.133Z,14.20
2019-05-28T02:28:56.722Z,14.21
2019-05-28T02:32:00.337Z,14.16
2019-05-28T02:35:06.031Z,14.20
2019-05-28T02:38:09.638Z,14.05
2019-05-28T02:41:13.380Z,14.03
2019-05-28T02:44:16.961Z,14.05
2019-05-28T02:47:20.603Z,13.97
2019-05-28T02:50:51.649Z,14.07
2019-05-28T02:53:55.413Z,14.18
2019-05-28T02:57:00.098Z,14.08
2019-05-28T03:00:05.129Z,14.08
2019-05-28T03:03:10.653Z,14.13
2019-05-28T03:06:14.364Z,14.19
2019-05-28T03:09:21.419Z,14.18
2019-05-28T03:12:24.997Z,14.32
2019-05-28T03:15:29.329Z,14.49
2019-05-28T03:18:35.964Z,14.63
2019-05-28T03:21:41.863Z,14.58
2019-05-28T03:24:48.502Z,14.63
2019-05-28T03:27:52.211Z,14.62
2019-05-28T03:30:55.871Z,14.55
2019-05-28T03:33:59.578Z,14.50
2019-05-28T03:37:04.104Z,14.51
2019-05-28T03:40:09.554Z,14.54
2019-05-28T03:43:13.860Z,14.54
2019-05-28T03:46:17.391Z,14.49
2019-05-28T03:49:21.020Z,14.52
2019-05-28T03:52:24.609Z,14.61
2019-05-28T03:55:28.268Z,14.75
2019-05-28T03:58:31.938Z,14.82
2019-05-28T04:01:35.578Z,14.62
2019-05-28T04:04:39.216Z,14.75
2019-05-28T04:07:42.831Z,14.79
2019-05-28T04:10:46.491Z,14.76
2019-05-28T04:13:50.099Z,14.79
2019-05-28T04:16:53.723Z,14.71
2019-05-28T04:19:57.355Z,14.86
2019-05-28T04:23:00.908Z,14.79
2019-05-28T04:26:04.654Z,14.85
2019-05-28T04:29:08.287Z,14.82
2019-05-28T04:32:11.891Z,14.79
2019-05-28T04:35:15.597Z,14.83
2019-05-28T04:38:19.229Z,14.90
2019-05-28T04:41:22.788Z,14.90
2019-05-28T04:44:26.382Z,14.97
2019-05-28T04:47:29.969Z,15.06
2019-05-28T04:50:33.594Z,15.09
2019-05-28T04:53:37.172Z,15.11
2019-05-28T04:56:40.778Z,15.09
2019-05-28T04:59:44.344Z,14.99
2019-05-28T05:02:58.537Z,15.05
2019-05-28T05:05:53.257Z,15.06
2019-05-28T05:08:56.832Z,15.02
2019-05-28T05:12:00.418Z,15.10
2019-05-28T05:15:09.419Z,15.05
2019-05-28T05:18:19.843Z,15.10
2019-05-28T05:21:28.354Z,15.09
2019-05-28T05:24:32.290Z,15.09
2019-05-28T05:27:36.078Z,14.99
2019-05-28T05:30:39.627Z,14.95
2019-05-28T05:33:45.770Z,14.90
2019-05-28T05:36:49.370Z,14.74
2019-05-28T05:39:52.956Z,15.05
2019-05-28T05:42:56.606Z,15.05
2019-05-28T05:46:00.291Z,14.98
2019-05-28T05:49:03.898Z,14.89
2019-05-28T05:52:07.490Z,15.03
2019-05-28T05:55:11.493Z,15.24
2019-05-28T05:58:15.090Z,15.29
2019-05-28T06:01:18.656Z,15.14
2019-05-28T06:04:22.512Z,15.40
2019-05-28T06:07:26.373Z,15.60
2019-05-28T06:10:29.947Z,15.31
2019-05-28T06:13:33.582Z,15.27
2019-05-28T06:16:37.569Z,15.57
2019-05-28T06:19:41.244Z,15.77
2019-05-28T06:22:44.810Z,15.96
2019-05-28T06:25:48.494Z,16.13
2019-05-28T06:28:52.144Z,16.22
2019-05-28T06:31:55.800Z,15.99
2019-05-28T06:34:59.424Z,16.28
2019-05-28T06:38:03.171Z,16.47
2019-05-28T06:41:06.864Z,16.70
2019-05-28T06:44:10.553Z,16.44
2019-05-28T06:47:14.176Z,16.48
2019-05-28T06:50:18.401Z,16.93
2019-05-28T06:53:22.109Z,17.92
2019-05-28T06:56:25.917Z,17.19
2019-05-28T06:59:29.706Z,17.16
2019-05-28T07:02:33.552Z,17.53
2019-05-28T07:05:37.192Z,17.86
2019-05-28T07:08:40.894Z,18.01
2019-05-28T07:11:44.559Z,17.88
2019-05-28T07:14:48.335Z,18.02
2019-05-28T07:17:52.011Z,18.25
2019-05-28T07:20:55.744Z,17.46
2019-05-28T07:23:59.419Z,17.64
2019-05-28T07:27:03.390Z,17.66
2019-05-28T07:30:10.340Z,18.23
2019-05-28T07:33:14.060Z,18.19
2019-05-28T07:36:17.695Z,18.21
2019-05-28T07:39:21.353Z,18.22
2019-05-28T07:42:32.871Z,18.34
2019-05-28T07:45:30.389Z,18.29
2019-05-28T07:48:34.037Z,17.92
2019-05-28T07:51:37.692Z,17.60
2019-05-28T07:54:41.335Z,18.21
2019-05-28T07:57:45.149Z,18.30
2019-05-28T08:00:48.857Z,17.86
2019-05-28T08:03:52.598Z,18.55
2019-05-28T08:06:56.419Z,18.16
2019-05-28T08:10:00.150Z,18.52
2019-05-28T08:13:05.222Z,18.14
2019-05-28T08:16:18.143Z,18.88
2019-05-28T08:19:14.547Z,19.28
2019-05-28T08:22:18.358Z,19.33
2019-05-28T08:25:41.539Z,19.01
2019-05-28T08:28:27.489Z,19.39
2019-05-28T08:31:31.113Z,18.82
2019-05-28T08:34:34.853Z,19.28
2019-05-28T08:37:41.394Z,19.69
2019-05-28T08:40:45.209Z,18.86
2019-05-28T08:43:48.861Z,19.21
2019-05-28T08:46:52.758Z,19.24
2019-05-28T08:49:56.482Z,19.24
2019-05-28T08:53:00.422Z,19.68
2019-05-28T08:56:04.493Z,19.73
2019-05-28T08:59:08.192Z,19.41
2019-05-28T09:02:27.254Z,20.51
2019-05-28T09:05:26.308Z,20.45
2019-05-28T09:08:38.735Z,20.23
2019-05-28T09:11:29.663Z,20.79
2019-05-28T09:14:54.338Z,21.65
2019-05-28T09:17:38.698Z,22.03
2019-05-28T09:20:42.444Z,21.82
2019-05-28T09:23:46.091Z,21.75
2019-05-28T09:26:49.773Z,21.85
2019-05-28T09:29:55.370Z,21.84
2019-05-28T09:32:58.827Z,21.04
2019-05-28T09:36:08.714Z,20.67
2019-05-28T09:39:08.658Z,21.18
2019-05-28T09:42:12.372Z,21.90
2019-05-28T09:45:23.658Z,21.54
2019-05-28T09:48:21.525Z,21.62
2019-05-28T09:51:25.186Z,21.87
2019-05-28T09:54:28.874Z,21.58
2019-05-28T09:57:46.352Z,22.32
2019-05-28T10:00:54.408Z,22.05
2019-05-28T10:03:44.242Z,21.86
2019-05-28T10:06:47.914Z,23.38
2019-05-28T10:09:51.710Z,24.05
2019-05-28T10:12:55.395Z,23.12
2019-05-28T10:15:59.023Z,22.57
2019-05-28T10:19:02.793Z,21.94
2019-05-28T10:22:06.489Z,23.33
2019-05-28T10:25:12.257Z,22.85
2019-05-28T10:28:15.960Z,23.82
2019-05-28T10:31:19.730Z,22.60
2019-05-28T10:34:23.367Z,23.30
2019-05-28T10:37:27.348Z,22.16
2019-05-28T10:40:30.917Z,21.66
2019-05-28T10:43:34.828Z,21.27
2019-05-28T10:46:41.377Z,21.63
2019-05-28T10:49:45.214Z,20.80
2019-05-28T10:52:48.921Z,21.06
2019-05-28T10:55:52.614Z,20.95
2019-05-28T10:58:56.243Z,21.31
2019-05-28T11:01:59.934Z,21.76
2019-05-28T11:05:05.807Z,22.06
2019-05-28T11:08:09.481Z,22.10
2019-05-28T11:11:13.136Z,21.93
2019-05-28T11:14:16.755Z,20.97
2019-05-28T11:17:20.421Z,20.92
2019-05-28T11:20:24.887Z,21.72
2019-05-28T11:23:28.633Z,21.93
2019-05-28T11:26:32.322Z,21.48
2019-05-28T11:29:36.007Z,20.73
2019-05-28T11:32:39.782Z,20.82
2019-05-28T11:35:43.459Z,20.44
2019-05-28T11:38:47.420Z,20.63
2019-05-28T11:41:51.056Z,21.09
2019-05-28T11:44:59.927Z,21.73
2019-05-28T11:48:03.769Z,21.62
2019-05-28T11:51:07.468Z,21.52
2019-05-28T11:54:11.169Z,21.20
2019-05-28T11:57:14.906Z,20.66
2019-05-28T12:00:19.093Z,21.08
2019-05-28T12:03:22.830Z,20.82
2019-05-28T12:06:26.665Z,21.53
2019-05-28T12:09:30.383Z,21.90
2019-05-28T12:12:35.764Z,21.99
2019-05-28T12:15:39.606Z,21.50
2019-05-28T12:18:43.477Z,22.27
2019-05-28T12:21:47.247Z,21.96
2019-05-28T12:24:51.061Z,22.25
2019-05-28T12:27:54.877Z,22.52
2019-05-28T12:30:58.541Z,21.96
2019-05-28T12:34:02.209Z,22.22
2019-05-28T12:37:05.949Z,22.16
2019-05-28T12:40:10.149Z,22.15
2019-05-28T12:43:13.840Z,21.66
2019-05-28T12:46:17.443Z,22.18
2019-05-28T12:49:21.238Z,22.89
2019-05-28T12:52:24.876Z,23.74
2019-05-28T12:55:28.568Z,23.55
2019-05-28T12:58:42.326Z,22.73
2019-05-28T13:01:37.628Z,22.55
2019-05-28T13:04:41.247Z,22.55
2019-05-28T13:07:44.981Z,22.43
2019-05-28T13:10:48.746Z,22.11
2019-05-28T13:13:52.502Z,21.98
2019-05-28T13:16:56.240Z,21.26
2019-05-28T13:19:59.888Z,21.11
2019-05-28T13:23:03.586Z,21.28
2019-05-28T13:26:07.260Z,21.39
2019-05-28T13:29:10.990Z,21.02
2019-05-28T13:32:14.623Z,20.28
2019-05-28T13:35:20.017Z,20.48
2019-05-28T13:38:27.339Z,20.30
2019-05-28T13:41:29.143Z,20.60
2019-05-28T13:44:32.773Z,20.62
2019-05-28T13:47:36.531Z,20.88
2019-05-28T13:50:40.252Z,21.11
2019-05-28T13:53:43.987Z,20.69
2019-05-28T13:56:47.621Z,20.87
2019-05-28T13:59:51.485Z,21.16
2019-05-28T14:02:55.651Z,21.13
2019-05-28T14:05:59.250Z,20.97
2019-05-28T14:09:02.972Z,21.43
2019-05-28T14:12:06.879Z,20.74
2019-05-28T14:15:11.670Z,20.98
2019-05-28T14:18:15.523Z,21.16
2019-05-28T14:21:19.255Z,20.81
2019-05-28T14:24:22.955Z,20.92
2019-05-28T14:27:26.654Z,21.06
2019-05-28T14:30:30.852Z,21.35
2019-05-28T14:33:34.603Z,21.56
2019-05-28T14:36:38.263Z,21.99
2019-05-28T14:39:41.980Z,21.70
2019-05-28T14:42:45.626Z,21.84
2019-05-28T14:45:49.260Z,21.30
2019-05-28T14:48:52.920Z,21.68
2019-05-28T14:51:56.762Z,21.57
2019-05-28T14:55:00.428Z,21.49
2019-05-28T14:58:05.462Z,21.79
2019-05-28T15:01:09.760Z,21.67
2019-05-28T15:04:13.444Z,21.55
2019-05-28T15:07:17.109Z,21.52
2019-05-28T15:10:22.390Z,21.09
2019-05-28T15:13:26.306Z,21.33
2019-05-28T15:16:30.155Z,21.25
2019-05-28T15:19:33.798Z,21.32
2019-05-28T15:22:38.198Z,21.16
2019-05-28T15:25:41.900Z,21.25
2019-05-28T15:28:45.808Z,20.73
2019-05-28T15:31:49.622Z,21.05
2019-05-28T15:34:53.282Z,21.02
2019-05-28T15:37:56.949Z,20.75
2019-05-28T15:41:00.629Z,20.62
2019-05-28T15:44:04.399Z,20.19
2019-05-28T15:47:08.163Z,20.11
2019-05-28T15:50:16.750Z,20.06
2019-05-28T15:53:20.419Z,20.24
2019-05-28T15:56:24.109Z,20.63
2019-05-28T15:59:27.804Z,20.79
2019-05-28T16:02:31.452Z,20.89
2019-05-28T16:05:35.226Z,20.41
2019-05-28T16:08:38.867Z,20.26
2019-05-28T16:11:42.535Z,20.27
2019-05-28T16:14:46.264Z,20.29
2019-05-28T16:17:49.935Z,20.35
2019-05-28T16:20:53.618Z,20.57
2019-05-28T16:23:57.275Z,20.72
2019-05-28T16:27:01.089Z,20.25
2019-05-28T16:30:07.768Z,20.11
2019-05-28T16:33:11.397Z,20.08
2019-05-28T16:36:15.157Z,20.10
2019-05-28T16:39:19.108Z,19.92
2019-05-28T16:42:22.839Z,19.70
2019-05-28T16:45:26.669Z,19.50
2019-05-28T16:48:30.391Z,19.47
2019-05-28T16:51:33.987Z,19.60
2019-05-28T16:54:37.731Z,19.48
2019-05-28T16:57:41.400Z,19.43
2019-05-28T17:00:45.196Z,19.06
2019-05-28T17:03:48.933Z,19.07
2019-05-28T17:06:52.586Z,18.68
2019-05-28T17:09:56.228Z,18.87
2019-05-28T17:12:59.880Z,18.66
2019-05-28T17:16:03.656Z,18.78
2019-05-28T17:19:07.309Z,18.69
2019-05-28T17:22:11.442Z,18.37
2019-05-28T17:25:16.783Z,18.26
2019-05-28T17:28:20.627Z,18.23
2019-05-28T17:31:24.333Z,18.29
2019-05-28T17:34:28.314Z,18.41
2019-05-28T17:37:32.124Z,18.20
2019-05-28T17:40:48.046Z,18.07
2019-05-28T17:43:41.501Z,18.01
2019-05-28T17:46:45.239Z,18.03
2019-05-28T17:49:50.958Z,18.11
2019-05-28T17:52:54.874Z,18.00
2019-05-28T17:55:58.616Z,17.73
2019-05-28T17:59:02.259Z,17.59
2019-05-28T18:02:07.839Z,17.06
2019-05-28T18:05:11.948Z,16.78
2019-05-28T18:08:15.628Z,16.56
2019-05-28T18:11:19.335Z,16.35
2019-05-28T18:14:25.243Z,16.23
2019-05-28T18:17:28.905Z,15.94
2019-05-28T18:20:35.426Z,16.07
2019-05-28T18:23:41.117Z,16.28
2019-05-28T18:26:44.787Z,16.23
2019-05-28T18:29:48.373Z,16.38
2019-05-28T18:32:52.830Z,16.00
2019-05-28T18:35:56.522Z,15.38
2019-05-28T18:39:00.104Z,15.12
2019-05-28T18:42:05.075Z,14.93
2019-05-28T18:45:09.602Z,14.66
2019-05-28T18:48:13.179Z,14.61
2019-05-28T18:51:16.801Z,14.52
2019-05-28T18:54:20.470Z,14.49
2019-05-28T18:57:24.156Z,14.42
2019-05-28T19:00:27.856Z,14.37
2019-05-28T19:03:31.481Z,14.24
2019-05-28T19:06:35.066Z,14.38
2019-05-28T19:09:38.628Z,14.08
2019-05-28T19:12:42.369Z,14.03
2019-05-28T19:15:46.619Z,13.88
2019-05-28T19:18:50.195Z,13.82
2019-05-28T19:21:53.805Z,13.82
2019-05-28T19:24:57.558Z,13.81
2019-05-28T19:28:01.218Z,13.69
2019-05-28T19:31:06.107Z,13.95
2019-05-28T19:34:10.443Z,13.99
2019-05-28T19:37:14.270Z,13.75
2019-05-28T19:40:20.906Z,13.72
2019-05-28T19:43:24.551Z,13.65
2019-05-28T19:46:28.192Z,13.74
2019-05-28T19:49:31.835Z,13.73
2019-05-28T19:52:35.417Z,13.68
2019-05-28T19:55:38.996Z,13.70
2019-05-28T19:58:42.644Z,13.58
2019-05-28T20:01:46.218Z,13.50
2019-05-28T20:04:49.822Z,13.53
2019-05-28T20:07:53.439Z,13.50
2019-05-28T20:10:57.090Z,13.52
2019-05-28T20:14:05.329Z,13.57
2019-05-28T20:17:06.013Z,13.47
2019-05-28T20:20:12.625Z,13.65
2019-05-28T20:23:16.398Z,13.54
2019-05-28T20:26:20.060Z,13.58
2019-05-28T20:29:23.658Z,13.45
2019-05-28T20:32:27.460Z,13.41
2019-05-28T20:35:31.291Z,13.45
2019-05-28T20:38:35.007Z,13.36
2019-05-28T20:41:38.660Z,13.39
2019-05-28T20:44:42.247Z,13.43
2019-05-28T20:47:45.940Z,13.44
2019-05-28T20:50:49.571Z,13.48
2019-05-28T20:53:53.276Z,13.48
2019-05-28T20:56:58.047Z,13.37
2019-05-28T21:00:01.724Z,13.52
2019-05-28T21:03:05.569Z,13.27
2019-05-28T21:06:09.122Z,13.24
2019-05-28T21:09:13.076Z,13.34
2019-05-28T21:12:16.820Z,13.35
2019-05-28T21:15:20.578Z,13.32
2019-05-28T21:18:24.209Z,13.44
2019-05-28T21:21:27.906Z,13.53
2019-05-28T21:24:31.594Z,13.73
2019-05-28T21:27:35.284Z,13.75
2019-05-28T21:30:38.924Z,13.68
2019-05-28T21:33:42.512Z,13.63
2019-05-28T21:36:46.128Z,13.50
2019-05-28T21:39:49.886Z,13.58
2019-05-28T21:43:03.714Z,13.60
2019-05-28T21:46:00.333Z,13.46
2019-05-28T21:49:04.211Z,13.35
2019-05-28T21:52:17.764Z,13.36
2019-05-28T21:55:22.663Z,13.16
2019-05-28T21:58:26.300Z,13.32
2019-05-28T22:01:32.924Z,13.32
2019-05-28T22:04:36.532Z,13.24
2019-05-28T22:07:40.323Z,13.33
2019-05-28T22:10:43.900Z,13.28
2019-05-28T22:13:47.609Z,13.29
2019-05-28T22:16:51.250Z,13.29
2019-05-28T22:19:56.179Z,13.39
2019-05-28T22:23:00.522Z,13.27
2019-05-28T22:26:05.034Z,13.24
2019-05-28T22:29:08.793Z,13.28
2019-05-28T22:32:12.456Z,13.19
2019-05-28T22:35:16.583Z,13.24
2019-05-28T22:38:20.170Z,13.19
2019-05-28T22:41:23.794Z,13.26
2019-05-28T22:44:27.334Z,13.13
2019-05-28T22:47:31.008Z,13.09
2019-05-28T22:50:34.684Z,13.16
2019-05-28T22:53:40.279Z,13.25
2019-05-28T22:56:44.168Z,13.23
2019-05-28T22:59:47.848Z,13.24
2019-05-28T23:02:54.101Z,13.17
2019-05-28T23:05:58.973Z,13.29
2019-05-28T23:09:03.551Z,13.33
2019-05-28T23:12:08.171Z,13.27
2019-05-28T23:15:12.341Z,13.22
2019-05-28T23:18:15.986Z,13.23
2019-05-28T23:21:19.600Z,13.10
2019-05-28T23:24:23.204Z,13.17
2019-05-28T23:27:26.778Z,13.19
2019-05-28T23:30:30.395Z,13.24
2019-05-28T23:33:33.974Z,13.18
2019-05-28T23:36:37.551Z,13.25
2019-05-28T23:39:41.294Z,13.15
2019-05-28T23:42:44.856Z,13.10
2019-05-28T23:45:48.513Z,13.05
2019-05-28T23:48:52.291Z,12.75
2019-05-28T23:51:55.895Z,12.74
2019-05-28T23:54:59.431Z,12.63
2019-05-28T23:58:03.037Z,12.69
